KAMN/AMN METAR and TAF weather

Enter ICAO airport designator
Station Type Date Time Source
KAMN METAR 2021/01/16 02:59 UTC NOAA

KAMN 160259Z AUTO 19003KT 7SM SCT100 01/01 A2959 RMK AO2 T00060006


Station Type Date Time Source
KAMN Decoded METAR 2021/01/16 02:59 UTC NOAA

Alma, Gratiot Community Airport, MI, United States (KAMN) 43-19-19N 084-41-16W
Jan 15, 2021 - 09:59 PM EST / 2021.01.16 0259 UTC
Wind: from the S (190 degrees) at 3 MPH (3 KT):0
Visibility: 7 mile(s):0
Sky conditions: partly cloudy
Temperature: 33.1 F (0.6 C)
Dew Point: 33.1 F (0.6 C)
Relative Humidity: 100%
Pressure (altimeter): 29.59 in. Hg (1002 hPa)
ob: KAMN 160259Z AUTO 19003KT 7SM SCT100 01/01 A2959 RMK AO2 T00060006
cycle: 3

Station Type Date Time Source
KAMN TAF UTC NOAA

Error!

Example: see airport list